createdAt,value
2018-07-10T00:00:59.938Z,15.59
2018-07-10T00:01:59.940Z,15.51
2018-07-10T00:02:59.940Z,15.44
2018-07-10T00:03:59.940Z,15.49
2018-07-10T00:04:59.938Z,15.51
2018-07-10T00:05:59.941Z,15.54
2018-07-10T00:06:59.941Z,15.59
2018-07-10T00:07:59.950Z,15.51
2018-07-10T00:08:59.943Z,15.59
2018-07-10T00:09:59.942Z,15.59
2018-07-10T00:10:59.943Z,15.58
2018-07-10T00:11:59.943Z,15.51
2018-07-10T00:12:59.942Z,15.42
2018-07-10T00:13:59.945Z,15.39
2018-07-10T00:14:59.946Z,15.40
2018-07-10T00:15:59.945Z,15.37
2018-07-10T00:16:59.945Z,15.43
2018-07-10T00:17:59.951Z,15.35
2018-07-10T00:18:59.948Z,15.36
2018-07-10T00:19:59.947Z,15.31
2018-07-10T00:20:59.948Z,15.37
2018-07-10T00:21:59.947Z,15.27
2018-07-10T00:22:59.947Z,15.36
2018-07-10T00:23:59.951Z,15.25
2018-07-10T00:24:59.948Z,15.39
2018-07-10T00:25:59.949Z,15.22
2018-07-10T00:26:59.951Z,15.39
2018-07-10T00:27:59.954Z,15.42
2018-07-10T00:28:59.950Z,15.40
2018-07-10T00:29:59.950Z,15.39
2018-07-10T00:30:59.951Z,15.39
2018-07-10T00:31:59.952Z,15.37
2018-07-10T00:32:59.952Z,15.24
2018-07-10T00:33:59.951Z,15.35
2018-07-10T00:34:59.952Z,15.36
2018-07-10T00:35:59.954Z,15.28
2018-07-10T00:36:59.954Z,15.36
2018-07-10T00:37:59.954Z,15.39
2018-07-10T00:38:59.955Z,15.33
2018-07-10T00:39:59.956Z,15.27
2018-07-10T00:40:59.955Z,15.24
2018-07-10T00:41:59.955Z,15.28
2018-07-10T00:42:59.956Z,15.25
2018-07-10T00:43:59.959Z,15.29
2018-07-10T00:44:59.956Z,15.33
2018-07-10T00:45:59.956Z,15.28
2018-07-10T00:46:59.956Z,15.29
2018-07-10T00:47:59.958Z,15.25
2018-07-10T00:48:59.959Z,15.29
2018-07-10T00:49:59.959Z,15.33
2018-07-10T00:50:59.959Z,15.29
2018-07-10T00:51:59.960Z,15.24
2018-07-10T00:52:59.959Z,15.36
2018-07-10T00:53:59.961Z,15.39
2018-07-10T00:54:59.966Z,15.36
2018-07-10T00:55:59.962Z,15.37
2018-07-10T00:56:59.960Z,15.28
2018-07-10T00:57:59.961Z,15.28
2018-07-10T00:58:59.963Z,15.35
2018-07-10T00:59:59.963Z,15.35
2018-07-10T01:00:59.963Z,15.28
2018-07-10T01:01:59.961Z,15.27
2018-07-10T01:02:59.962Z,15.22
2018-07-10T01:03:59.963Z,15.24
2018-07-10T01:04:59.962Z,15.14
2018-07-10T01:05:59.963Z,15.15
2018-07-10T01:06:59.965Z,15.22
2018-07-10T01:07:59.964Z,15.21
2018-07-10T01:08:59.966Z,15.19
2018-07-10T01:09:59.965Z,15.27
2018-07-10T01:10:59.967Z,15.25
2018-07-10T01:11:59.965Z,15.24
2018-07-10T01:12:59.965Z,15.25
2018-07-10T01:13:59.967Z,15.33
2018-07-10T01:14:59.968Z,15.22
2018-07-10T01:15:59.969Z,15.21
2018-07-10T01:16:59.966Z,15.22
2018-07-10T01:17:59.966Z,15.28
2018-07-10T01:19:00.038Z,15.33
2018-07-10T01:19:59.967Z,15.42
2018-07-10T01:20:59.969Z,15.36
2018-07-10T01:21:59.968Z,15.39
2018-07-10T01:22:59.968Z,15.33
2018-07-10T01:23:59.968Z,15.27
2018-07-10T01:24:59.967Z,15.29
2018-07-10T01:25:59.969Z,15.33
2018-07-10T01:26:59.970Z,15.24
2018-07-10T01:27:59.971Z,15.25
2018-07-10T01:28:59.971Z,15.17
2018-07-10T01:29:59.969Z,15.17
2018-07-10T01:30:59.970Z,15.15
2018-07-10T01:31:59.970Z,15.15
2018-07-10T01:32:59.972Z,15.18
2018-07-10T01:33:59.971Z,15.19
2018-07-10T01:34:59.971Z,15.19
2018-07-10T01:35:59.972Z,15.21
2018-07-10T01:36:59.972Z,15.21
2018-07-10T01:37:59.971Z,15.18
2018-07-10T01:38:59.973Z,15.18
2018-07-10T01:39:59.973Z,15.15
2018-07-10T01:40:59.972Z,15.11
2018-07-10T01:41:59.973Z,15.17
2018-07-10T01:42:59.972Z,15.11
2018-07-10T01:43:59.974Z,15.06
2018-07-10T01:44:59.972Z,15.15
2018-07-10T01:45:59.975Z,15.18
2018-07-10T01:46:59.974Z,15.14
2018-07-10T01:47:59.975Z,15.19
2018-07-10T01:48:59.974Z,15.15
2018-07-10T01:49:59.973Z,15.09
2018-07-10T01:51:00.026Z,15.06
2018-07-10T01:51:59.980Z,15.06
2018-07-10T01:52:59.976Z,15.06
2018-07-10T01:53:59.975Z,15.00
2018-07-10T01:54:59.976Z,15.07
2018-07-10T01:55:59.977Z,15.03
2018-07-10T01:56:59.975Z,15.06
2018-07-10T01:57:59.977Z,15.11
2018-07-10T01:58:59.976Z,14.99
2018-07-10T01:59:59.978Z,15.03
2018-07-10T02:00:59.976Z,15.02
2018-07-10T02:01:59.976Z,15.09
2018-07-10T02:02:59.978Z,14.99
2018-07-10T02:03:59.978Z,14.89
2018-07-10T02:04:59.977Z,14.88
2018-07-10T02:05:59.980Z,14.86
2018-07-10T02:06:59.978Z,14.86
2018-07-10T02:07:59.978Z,14.72
2018-07-10T02:08:59.978Z,14.78
2018-07-10T02:09:59.977Z,14.68
2018-07-10T02:10:59.979Z,14.66
2018-07-10T02:11:59.979Z,14.66
2018-07-10T02:12:59.978Z,14.65
2018-07-10T02:14:00.034Z,14.63
2018-07-10T02:14:59.982Z,14.62
2018-07-10T02:15:59.978Z,14.60
2018-07-10T02:16:59.979Z,14.59
2018-07-10T02:17:59.977Z,14.66
2018-07-10T02:18:59.979Z,14.51
2018-07-10T02:19:59.978Z,14.51
2018-07-10T02:20:59.979Z,14.44
2018-07-10T02:21:59.977Z,14.43
2018-07-10T02:22:59.978Z,14.54
2018-07-10T02:23:59.978Z,14.51
2018-07-10T02:24:59.978Z,14.51
2018-07-10T02:25:59.976Z,14.48
2018-07-10T02:26:59.976Z,14.55
2018-07-10T02:27:59.977Z,14.58
2018-07-10T02:28:59.976Z,14.51
2018-07-10T02:29:59.976Z,14.51
2018-07-10T02:30:59.975Z,14.43
2018-07-10T02:31:59.976Z,14.50
2018-07-10T02:32:59.975Z,14.50
2018-07-10T02:33:59.976Z,14.69
2018-07-10T02:34:59.975Z,14.68
2018-07-10T02:35:59.976Z,14.66
2018-07-10T02:36:59.974Z,14.58
2018-07-10T02:37:59.975Z,14.50
2018-07-10T02:38:59.974Z,14.50
2018-07-10T02:39:59.974Z,14.36
2018-07-10T02:40:59.974Z,14.29
2018-07-10T02:41:59.973Z,14.33
2018-07-10T02:42:59.972Z,14.30
2018-07-10T02:43:59.976Z,14.32
2018-07-10T02:44:59.976Z,14.26
2018-07-10T02:45:59.972Z,14.22
2018-07-10T02:46:59.973Z,14.22
2018-07-10T02:47:59.973Z,14.17
2018-07-10T02:48:59.971Z,14.11
2018-07-10T02:49:59.971Z,14.10
2018-07-10T02:50:59.970Z,13.97
2018-07-10T02:51:59.971Z,14.15
2018-07-10T02:52:59.969Z,14.15
2018-07-10T02:53:59.969Z,14.12
2018-07-10T02:54:59.969Z,14.11
2018-07-10T02:55:59.969Z,14.10
2018-07-10T02:56:59.968Z,14.20
2018-07-10T02:57:59.969Z,14.15
2018-07-10T02:58:59.973Z,14.22
2018-07-10T02:59:59.967Z,14.10
2018-07-10T03:00:59.976Z,14.18
2018-07-10T03:01:59.964Z,14.20
2018-07-10T03:02:59.966Z,14.17
2018-07-10T03:03:59.965Z,14.17
2018-07-10T03:04:59.963Z,14.18
2018-07-10T03:05:59.965Z,14.22
2018-07-10T03:06:59.964Z,14.15
2018-07-10T03:07:59.966Z,14.15
2018-07-10T03:08:59.964Z,14.26
2018-07-10T03:09:59.962Z,14.22
2018-07-10T03:10:59.965Z,14.22
2018-07-10T03:11:59.962Z,14.26
2018-07-10T03:12:59.961Z,14.35
2018-07-10T03:13:59.962Z,14.33
2018-07-10T03:14:59.960Z,14.35
2018-07-10T03:15:59.959Z,14.36
2018-07-10T03:16:59.959Z,14.32
2018-07-10T03:17:59.958Z,14.26
2018-07-10T03:18:59.959Z,14.40
2018-07-10T03:19:59.958Z,14.36
2018-07-10T03:20:59.959Z,14.37
2018-07-10T03:21:59.957Z,14.35
2018-07-10T03:22:59.959Z,14.40
2018-07-10T03:23:59.956Z,14.30
2018-07-10T03:24:59.956Z,14.35
2018-07-10T03:25:59.954Z,14.35
2018-07-10T03:26:59.960Z,14.44
2018-07-10T03:27:59.955Z,14.33
2018-07-10T03:28:59.954Z,14.25
2018-07-10T03:29:59.953Z,14.33
2018-07-10T03:30:59.960Z,14.28
2018-07-10T03:31:59.953Z,14.33
2018-07-10T03:32:59.952Z,14.26
2018-07-10T03:33:59.951Z,14.30
2018-07-10T03:34:59.951Z,14.22
2018-07-10T03:35:59.977Z,14.35
2018-07-10T03:36:59.951Z,14.30
2018-07-10T03:37:59.949Z,14.37
2018-07-10T03:38:59.949Z,14.36
2018-07-10T03:39:59.950Z,14.43
2018-07-10T03:40:59.947Z,14.51
2018-07-10T03:41:59.947Z,14.45
2018-07-10T03:42:59.947Z,14.51
2018-07-10T03:43:59.946Z,14.53
2018-07-10T03:44:59.949Z,14.37
2018-07-10T03:45:59.945Z,14.50
2018-07-10T03:46:59.946Z,14.55
2018-07-10T03:47:59.946Z,14.47
2018-07-10T03:48:59.943Z,14.43
2018-07-10T03:49:59.943Z,14.43
2018-07-10T03:50:59.943Z,14.30
2018-07-10T03:51:59.943Z,14.32
2018-07-10T03:52:59.942Z,14.48
2018-07-10T03:53:59.941Z,14.45
2018-07-10T03:54:59.940Z,14.41
2018-07-10T03:55:59.941Z,14.44
2018-07-10T03:56:59.939Z,14.35
2018-07-10T03:57:59.940Z,14.37
2018-07-10T03:58:59.940Z,14.33
2018-07-10T03:59:59.941Z,14.41
2018-07-10T04:00:59.938Z,14.35
2018-07-10T04:01:59.937Z,14.41
2018-07-10T04:02:59.938Z,14.47
2018-07-10T04:03:59.938Z,14.53
2018-07-10T04:04:59.936Z,14.41
2018-07-10T04:05:59.936Z,14.37
2018-07-10T04:06:59.936Z,14.40
2018-07-10T04:07:59.935Z,14.43
2018-07-10T04:08:59.941Z,14.40
2018-07-10T04:09:59.932Z,14.48
2018-07-10T04:10:59.933Z,14.47
2018-07-10T04:11:59.933Z,14.50
2018-07-10T04:12:59.932Z,14.43
2018-07-10T04:13:59.933Z,14.55
2018-07-10T04:14:59.932Z,14.48
2018-07-10T04:15:59.932Z,14.55
2018-07-10T04:16:59.931Z,14.54
2018-07-10T04:17:59.932Z,14.62
2018-07-10T04:18:59.929Z,14.51
2018-07-10T04:19:59.930Z,14.62
2018-07-10T04:20:59.928Z,14.55
2018-07-10T04:21:59.928Z,14.50
2018-07-10T04:22:59.929Z,14.53
2018-07-10T04:23:59.929Z,14.65
2018-07-10T04:24:59.927Z,14.70
2018-07-10T04:25:59.928Z,14.62
2018-07-10T04:26:59.925Z,14.73
2018-07-10T04:27:59.926Z,14.70
2018-07-10T04:28:59.979Z,14.73
2018-07-10T04:29:59.924Z,14.86
2018-07-10T04:30:59.926Z,14.78
2018-07-10T04:31:59.925Z,14.77
2018-07-10T04:32:59.924Z,14.77
2018-07-10T04:33:59.922Z,14.72
2018-07-10T04:34:59.924Z,14.78
2018-07-10T04:35:59.925Z,14.85
2018-07-10T04:36:59.922Z,14.70
2018-07-10T04:37:59.921Z,14.79
2018-07-10T04:38:59.922Z,14.85
2018-07-10T04:39:59.921Z,14.86
2018-07-10T04:40:59.921Z,14.86
2018-07-10T04:41:59.920Z,14.82
2018-07-10T04:42:59.921Z,14.81
2018-07-10T04:43:59.920Z,14.82
2018-07-10T04:44:59.919Z,14.91
2018-07-10T04:45:59.922Z,14.97
2018-07-10T04:46:59.920Z,14.96
2018-07-10T04:47:59.918Z,14.88
2018-07-10T04:48:59.934Z,14.97
2018-07-10T04:49:59.918Z,14.91
2018-07-10T04:50:59.917Z,14.88
2018-07-10T04:51:59.919Z,14.99
2018-07-10T04:52:59.918Z,14.92
2018-07-10T04:53:59.917Z,14.99
2018-07-10T04:54:59.918Z,14.97
2018-07-10T04:55:59.917Z,15.06
2018-07-10T04:56:59.918Z,15.03
2018-07-10T04:57:59.917Z,15.03
2018-07-10T04:58:59.917Z,14.97
2018-07-10T04:59:59.919Z,15.00
2018-07-10T05:00:59.916Z,14.99
2018-07-10T05:01:59.917Z,15.17
2018-07-10T05:02:59.920Z,15.15
2018-07-10T05:03:59.919Z,15.15
2018-07-10T05:04:59.918Z,15.09
2018-07-10T05:05:59.933Z,15.14
2018-07-10T05:06:59.917Z,15.06
2018-07-10T05:07:59.918Z,15.06
2018-07-10T05:08:59.915Z,14.97
2018-07-10T05:09:59.917Z,14.89
2018-07-10T05:10:59.916Z,14.96
2018-07-10T05:11:59.953Z,15.06
2018-07-10T05:12:59.916Z,15.06
2018-07-10T05:13:59.918Z,15.06
2018-07-10T05:14:59.918Z,15.02
2018-07-10T05:15:59.917Z,15.07
2018-07-10T05:16:59.917Z,15.09
2018-07-10T05:17:59.917Z,15.18
2018-07-10T05:18:59.915Z,15.14
2018-07-10T05:19:59.917Z,15.22
2018-07-10T05:20:59.917Z,15.14
2018-07-10T05:21:59.918Z,15.24
2018-07-10T05:22:59.952Z,15.11
2018-07-10T05:23:59.917Z,15.14
2018-07-10T05:24:59.917Z,15.14
2018-07-10T05:25:59.917Z,15.03
2018-07-10T05:26:59.916Z,15.15
2018-07-10T05:27:59.917Z,15.18
2018-07-10T05:28:59.995Z,15.15
2018-07-10T05:29:59.917Z,15.19
2018-07-10T05:30:59.920Z,15.18
2018-07-10T05:31:59.917Z,15.11
2018-07-10T05:32:59.918Z,15.17
2018-07-10T05:33:59.916Z,15.11
2018-07-10T05:34:59.918Z,15.22
2018-07-10T05:35:59.918Z,15.29
2018-07-10T05:36:59.918Z,15.42
2018-07-10T05:37:59.918Z,15.22
2018-07-10T05:38:59.917Z,15.29
2018-07-10T05:39:59.918Z,15.37
2018-07-10T05:40:59.918Z,15.35
2018-07-10T05:41:59.918Z,15.39
2018-07-10T05:42:59.919Z,15.40
2018-07-10T05:43:59.919Z,15.31
2018-07-10T05:44:59.919Z,15.42
2018-07-10T05:45:59.919Z,15.35
2018-07-10T05:46:59.919Z,15.35
2018-07-10T05:47:59.919Z,15.44
2018-07-10T05:48:59.926Z,15.47
2018-07-10T05:49:59.921Z,15.59
2018-07-10T05:50:59.919Z,15.77
2018-07-10T05:51:59.931Z,15.80
2018-07-10T05:52:59.920Z,15.73
2018-07-10T05:53:59.921Z,15.77
2018-07-10T05:54:59.921Z,15.79
2018-07-10T05:55:59.922Z,15.68
2018-07-10T05:56:59.922Z,15.75
2018-07-10T05:57:59.921Z,15.70
2018-07-10T05:58:59.923Z,15.58
2018-07-10T05:59:59.923Z,15.58
2018-07-10T06:00:59.923Z,15.55
2018-07-10T06:01:59.927Z,15.61
2018-07-10T06:02:59.927Z,15.65
2018-07-10T06:03:59.925Z,15.57
2018-07-10T06:04:59.926Z,15.59
2018-07-10T06:05:59.926Z,15.61
2018-07-10T06:06:59.928Z,15.59
2018-07-10T06:07:59.927Z,15.59
2018-07-10T06:08:59.925Z,15.58
2018-07-10T06:09:59.933Z,15.65
2018-07-10T06:10:59.927Z,15.59
2018-07-10T06:11:59.932Z,15.58
2018-07-10T06:12:59.929Z,15.52
2018-07-10T06:13:59.981Z,15.54
2018-07-10T06:14:59.930Z,15.40
2018-07-10T06:15:59.930Z,15.40
2018-07-10T06:16:59.930Z,15.42
2018-07-10T06:17:59.930Z,15.47
2018-07-10T06:18:59.931Z,15.54
2018-07-10T06:19:59.930Z,15.52
2018-07-10T06:20:59.931Z,15.46
2018-07-10T06:21:59.935Z,15.51
2018-07-10T06:22:59.931Z,15.39
2018-07-10T06:23:59.933Z,15.25
2018-07-10T06:24:59.931Z,15.17
2018-07-10T06:25:59.931Z,15.17
2018-07-10T06:26:59.941Z,15.14
2018-07-10T06:27:59.933Z,15.25
2018-07-10T06:28:59.933Z,15.33
2018-07-10T06:29:59.933Z,15.40
2018-07-10T06:30:59.933Z,15.47
2018-07-10T06:31:59.935Z,15.59
2018-07-10T06:32:59.933Z,15.51
2018-07-10T06:33:59.934Z,15.57
2018-07-10T06:34:59.939Z,15.47
2018-07-10T06:35:59.935Z,15.22
2018-07-10T06:36:59.934Z,15.17
2018-07-10T06:37:59.934Z,14.89
2018-07-10T06:38:59.935Z,15.00
2018-07-10T06:39:59.935Z,15.03
2018-07-10T06:40:59.936Z,15.03
2018-07-10T06:41:59.934Z,15.02
2018-07-10T06:42:59.938Z,15.06
2018-07-10T06:43:59.935Z,14.86
2018-07-10T06:44:59.934Z,14.88
2018-07-10T06:45:59.938Z,15.06
2018-07-10T06:46:59.936Z,15.17
2018-07-10T06:47:59.937Z,15.17
2018-07-10T06:48:59.937Z,15.14
2018-07-10T06:49:59.937Z,15.15
2018-07-10T06:50:59.939Z,15.33
2018-07-10T06:51:59.938Z,15.37
2018-07-10T06:53:00.247Z,15.49
2018-07-10T06:53:59.938Z,15.58
2018-07-10T06:54:59.938Z,15.67
2018-07-10T06:55:59.939Z,15.79
2018-07-10T06:56:59.938Z,15.77
2018-07-10T06:57:59.938Z,15.64
2018-07-10T06:58:59.941Z,15.70
2018-07-10T06:59:59.940Z,15.62
2018-07-10T07:00:59.947Z,15.61
2018-07-10T07:01:59.941Z,15.39
2018-07-10T07:02:59.942Z,15.40
2018-07-10T07:03:59.942Z,15.27
2018-07-10T07:04:59.942Z,15.28
2018-07-10T07:05:59.942Z,15.03
2018-07-10T07:06:59.943Z,15.03
2018-07-10T07:07:59.993Z,15.03
2018-07-10T07:08:59.944Z,15.03
2018-07-10T07:09:59.946Z,14.92
2018-07-10T07:10:59.949Z,14.92
2018-07-10T07:11:59.947Z,14.88
2018-07-10T07:12:59.947Z,14.94
2018-07-10T07:13:59.948Z,14.96
2018-07-10T07:14:59.949Z,14.78
2018-07-10T07:15:59.952Z,14.88
2018-07-10T07:16:59.952Z,14.73
2018-07-10T07:17:59.950Z,14.78
2018-07-10T07:18:59.950Z,14.72
2018-07-10T07:19:59.951Z,14.89
2018-07-10T07:20:59.950Z,14.85
2018-07-10T07:21:59.953Z,14.85
2018-07-10T07:22:59.951Z,14.91
2018-07-10T07:23:59.952Z,14.81
2018-07-10T07:24:59.952Z,14.86
2018-07-10T07:25:59.952Z,14.70
2018-07-10T07:26:59.953Z,14.66
2018-07-10T07:27:59.953Z,14.65
2018-07-10T07:28:59.953Z,14.72
2018-07-10T07:29:59.954Z,14.82
2018-07-10T07:30:59.953Z,14.72
2018-07-10T07:31:59.956Z,14.78
2018-07-10T07:32:59.954Z,14.72
2018-07-10T07:33:59.954Z,14.79
2018-07-10T07:34:59.983Z,14.78
2018-07-10T07:35:59.955Z,14.78
2018-07-10T07:36:59.954Z,15.00
2018-07-10T07:37:59.955Z,15.03
2018-07-10T07:38:59.955Z,14.97
2018-07-10T07:39:59.955Z,14.89
2018-07-10T07:40:59.953Z,14.88
2018-07-10T07:41:59.957Z,14.78
2018-07-10T07:42:59.955Z,14.91
2018-07-10T07:44:00.030Z,14.66
2018-07-10T07:44:59.956Z,14.45
2018-07-10T07:45:59.956Z,14.53
2018-07-10T07:46:59.956Z,14.62
2018-07-10T07:47:59.957Z,14.66
2018-07-10T07:48:59.959Z,14.62
2018-07-10T07:49:59.957Z,14.60
2018-07-10T07:50:59.956Z,14.66
2018-07-10T07:51:59.958Z,14.77
2018-07-10T07:52:59.956Z,14.65
2018-07-10T07:53:59.958Z,14.54
2018-07-10T07:54:59.957Z,14.53
2018-07-10T07:55:59.957Z,14.55
2018-07-10T07:56:59.957Z,14.58
2018-07-10T07:57:59.956Z,14.72
2018-07-10T07:58:59.960Z,14.53
2018-07-10T07:59:59.958Z,14.55
2018-07-10T08:00:59.959Z,14.65
2018-07-10T08:01:59.958Z,14.63
2018-07-10T08:02:59.957Z,14.72
2018-07-10T08:03:59.965Z,14.55
2018-07-10T08:04:59.956Z,14.72
2018-07-10T08:05:59.957Z,14.65
2018-07-10T08:06:59.957Z,14.77
2018-07-10T08:07:59.958Z,14.68
2018-07-10T08:08:59.957Z,14.81
2018-07-10T08:09:59.957Z,14.79
2018-07-10T08:10:59.957Z,14.70
2018-07-10T08:11:59.957Z,14.62
2018-07-10T08:12:59.957Z,14.69
2018-07-10T08:13:59.958Z,14.91
2018-07-10T08:14:59.957Z,14.72
2018-07-10T08:15:59.958Z,14.73
2018-07-10T08:16:59.961Z,14.69
2018-07-10T08:17:59.957Z,14.73
2018-07-10T08:18:59.958Z,14.89
2018-07-10T08:19:59.958Z,15.00
2018-07-10T08:20:59.956Z,14.94
2018-07-10T08:21:59.957Z,15.07
2018-07-10T08:22:59.958Z,14.97
2018-07-10T08:23:59.958Z,14.88
2018-07-10T08:24:59.958Z,15.10
2018-07-10T08:25:59.957Z,15.18
2018-07-10T08:26:59.959Z,15.03
2018-07-10T08:27:59.959Z,15.09
2018-07-10T08:28:59.960Z,15.19
2018-07-10T08:29:59.960Z,15.24
2018-07-10T08:30:59.961Z,15.33
2018-07-10T08:31:59.961Z,15.40
2018-07-10T08:32:59.960Z,15.58
2018-07-10T08:34:00.063Z,15.58
2018-07-10T08:34:59.962Z,15.70
2018-07-10T08:35:59.962Z,15.67
2018-07-10T08:36:59.962Z,15.49
2018-07-10T08:37:59.963Z,15.37
2018-07-10T08:38:59.964Z,15.28
2018-07-10T08:39:59.967Z,15.19
2018-07-10T08:40:59.966Z,15.35
2018-07-10T08:41:59.965Z,15.44
2018-07-10T08:42:59.968Z,15.42
2018-07-10T08:43:59.967Z,15.57
2018-07-10T08:44:59.969Z,15.70
2018-07-10T08:45:59.968Z,15.62
2018-07-10T08:46:59.969Z,15.51
2018-07-10T08:47:59.972Z,15.57
2018-07-10T08:48:59.970Z,15.59
2018-07-10T08:49:59.971Z,15.80
2018-07-10T08:50:59.975Z,15.65
2018-07-10T08:51:59.973Z,15.54
2018-07-10T08:52:59.973Z,15.55
2018-07-10T08:53:59.974Z,15.49
2018-07-10T08:54:59.975Z,15.49
2018-07-10T08:55:59.975Z,15.25
2018-07-10T08:56:59.977Z,15.29
2018-07-10T08:57:59.978Z,15.27
2018-07-10T08:58:59.979Z,15.49
2018-07-10T08:59:59.980Z,15.49
2018-07-10T09:00:59.979Z,15.57
2018-07-10T09:01:59.982Z,15.44
2018-07-10T09:02:59.981Z,15.27
2018-07-10T09:03:59.984Z,15.24
2018-07-10T09:04:59.983Z,15.33
2018-07-10T09:05:59.985Z,15.33
2018-07-10T09:06:59.985Z,15.36
2018-07-10T09:08:00.037Z,15.33
2018-07-10T09:08:59.986Z,15.29
2018-07-10T09:09:59.988Z,15.24
2018-07-10T09:10:59.988Z,15.22
2018-07-10T09:11:59.990Z,15.22
2018-07-10T09:12:59.989Z,15.25
2018-07-10T09:14:00.080Z,15.29
2018-07-10T09:14:59.995Z,15.25
2018-07-10T09:15:59.992Z,15.31
2018-07-10T09:16:59.991Z,15.40
2018-07-10T09:17:59.993Z,15.35
2018-07-10T09:18:59.992Z,15.15
2018-07-10T09:19:59.995Z,15.29
2018-07-10T09:20:59.994Z,15.35
2018-07-10T09:21:59.995Z,15.42
2018-07-10T09:22:59.996Z,15.44
2018-07-10T09:24:00.000Z,15.47
2018-07-10T09:24:59.997Z,15.27
2018-07-10T09:25:59.998Z,15.15
2018-07-10T09:26:59.999Z,15.17
2018-07-10T09:28:00.001Z,15.25
2018-07-10T09:28:59.999Z,15.22
2018-07-10T09:30:00.001Z,15.27
2018-07-10T09:31:00.000Z,15.39
2018-07-10T09:32:00.003Z,15.51
2018-07-10T09:33:00.001Z,15.57
2018-07-10T09:34:00.015Z,15.73
2018-07-10T09:35:00.004Z,15.77
2018-07-10T09:36:00.020Z,15.86
2018-07-10T09:37:00.011Z,15.72
2018-07-10T09:38:00.013Z,15.68
2018-07-10T09:39:00.009Z,15.65
2018-07-10T09:40:00.077Z,15.67
2018-07-10T09:41:00.008Z,15.47
2018-07-10T09:42:00.010Z,15.47
2018-07-10T09:43:00.011Z,15.39
2018-07-10T09:44:00.082Z,15.51
2018-07-10T09:45:00.053Z,15.44
2018-07-10T09:46:00.031Z,15.43
2018-07-10T09:47:00.052Z,15.39
2018-07-10T09:48:00.028Z,15.43
2018-07-10T09:49:00.017Z,15.51
2018-07-10T09:50:00.020Z,15.54
2018-07-10T09:51:00.020Z,15.40
2018-07-10T09:52:00.027Z,15.52
2018-07-10T09:53:00.027Z,15.57
2018-07-10T09:54:00.019Z,15.54
2018-07-10T09:55:00.155Z,15.54
2018-07-10T09:56:00.027Z,15.51
2018-07-10T09:57:00.022Z,15.51
2018-07-10T09:58:00.027Z,15.51
2018-07-10T09:59:00.024Z,15.40
2018-07-10T10:00:00.039Z,15.49
2018-07-10T10:01:00.032Z,15.37
2018-07-10T10:02:00.111Z,15.28
2018-07-10T10:03:00.028Z,15.29
2018-07-10T10:04:00.027Z,15.39
2018-07-10T10:05:00.052Z,15.31
2018-07-10T10:06:00.029Z,15.37
2018-07-10T10:07:00.030Z,15.39
2018-07-10T10:08:00.031Z,15.39
2018-07-10T10:09:00.032Z,15.40
2018-07-10T10:10:00.033Z,15.46
2018-07-10T10:11:00.032Z,15.59
2018-07-10T10:12:00.034Z,15.59
2018-07-10T10:13:00.033Z,15.40
2018-07-10T10:14:00.033Z,15.57
2018-07-10T10:15:00.040Z,15.61
2018-07-10T10:16:00.038Z,15.59
2018-07-10T10:17:00.035Z,15.61
2018-07-10T10:18:00.036Z,15.68
2018-07-10T10:19:00.036Z,15.73
2018-07-10T10:20:00.049Z,15.80
2018-07-10T10:21:00.042Z,15.91
2018-07-10T10:22:00.040Z,15.80
2018-07-10T10:23:00.039Z,15.72
2018-07-10T10:24:00.040Z,15.80
2018-07-10T10:25:00.043Z,15.76
2018-07-10T10:26:00.040Z,15.76
2018-07-10T10:27:00.042Z,15.70
2018-07-10T10:28:00.043Z,15.77
2018-07-10T10:29:00.048Z,15.79
2018-07-10T10:30:00.081Z,15.70
2018-07-10T10:31:00.046Z,15.67
2018-07-10T10:32:00.046Z,15.65
2018-07-10T10:33:00.048Z,15.64
2018-07-10T10:34:00.047Z,15.73
2018-07-10T10:35:00.051Z,15.90
2018-07-10T10:36:00.049Z,15.84
2018-07-10T10:37:00.051Z,15.92
2018-07-10T10:38:00.050Z,16.04
2018-07-10T10:39:00.050Z,16.15
2018-07-10T10:40:00.054Z,16.32
2018-07-10T10:41:00.052Z,16.17
2018-07-10T10:42:00.055Z,16.16
2018-07-10T10:43:00.054Z,16.20
2018-07-10T10:44:00.058Z,16.17
2018-07-10T10:45:00.068Z,16.04
2018-07-10T10:46:00.056Z,16.04
2018-07-10T10:47:00.061Z,16.04
2018-07-10T10:48:00.057Z,16.08
2018-07-10T10:49:00.059Z,16.23
2018-07-10T10:50:00.063Z,16.09
2018-07-10T10:51:00.062Z,16.16
2018-07-10T10:52:00.072Z,16.16
2018-07-10T10:53:00.063Z,16.16
2018-07-10T10:54:00.064Z,16.15
2018-07-10T10:55:00.072Z,16.10
2018-07-10T10:56:00.067Z,16.04
2018-07-10T10:57:00.066Z,16.05
2018-07-10T10:58:00.069Z,16.13
2018-07-10T10:59:00.069Z,16.13
2018-07-10T11:00:00.095Z,16.24
2018-07-10T11:01:00.074Z,16.15
2018-07-10T11:02:00.072Z,16.20
2018-07-10T11:03:00.080Z,16.32
2018-07-10T11:04:00.074Z,16.20
2018-07-10T11:05:00.075Z,16.23
2018-07-10T11:06:00.085Z,16.31
2018-07-10T11:07:00.077Z,16.26
2018-07-10T11:08:00.078Z,16.33
2018-07-10T11:09:00.079Z,16.31
2018-07-10T11:10:00.080Z,16.60
2018-07-10T11:11:00.082Z,16.65
2018-07-10T11:12:00.084Z,16.78
2018-07-10T11:13:00.112Z,17.01
2018-07-10T11:14:00.085Z,17.02
2018-07-10T11:15:00.090Z,17.19
2018-07-10T11:16:00.089Z,17.19
2018-07-10T11:17:00.089Z,17.27
2018-07-10T11:18:00.090Z,17.06
2018-07-10T11:19:00.092Z,17.19
2018-07-10T11:20:00.095Z,17.22
2018-07-10T11:21:00.096Z,17.41
2018-07-10T11:22:00.098Z,17.30
2018-07-10T11:23:00.099Z,17.45
2018-07-10T11:24:00.100Z,17.67
2018-07-10T11:25:00.101Z,17.76
2018-07-10T11:26:00.103Z,17.83
2018-07-10T11:27:00.105Z,18.20
2018-07-10T11:28:00.108Z,18.22
2018-07-10T11:29:00.108Z,17.94
2018-07-10T11:30:00.116Z,17.97
2018-07-10T11:31:00.113Z,18.01
2018-07-10T11:32:00.117Z,18.10
2018-07-10T11:33:00.120Z,18.22
2018-07-10T11:34:00.121Z,18.33
2018-07-10T11:35:00.124Z,18.38
2018-07-10T11:36:00.126Z,18.40
2018-07-10T11:37:00.129Z,18.43
2018-07-10T11:38:00.131Z,18.50
2018-07-10T11:39:00.149Z,18.52
2018-07-10T11:40:00.138Z,18.50
2018-07-10T11:41:00.141Z,18.40
2018-07-10T11:42:00.143Z,18.40
2018-07-10T11:43:00.146Z,18.59
2018-07-10T11:44:00.149Z,18.73
2018-07-10T11:45:00.152Z,18.81
2018-07-10T11:46:00.155Z,18.92
2018-07-10T11:47:00.159Z,18.98
2018-07-10T11:48:00.162Z,19.04
2018-07-10T11:49:00.172Z,18.84
2018-07-10T11:50:00.167Z,18.88
2018-07-10T11:51:00.172Z,18.73
2018-07-10T11:52:00.175Z,18.37
2018-07-10T11:53:00.177Z,18.40
2018-07-10T11:54:00.180Z,18.40
2018-07-10T11:55:00.184Z,18.52
2018-07-10T11:56:00.188Z,18.73
2018-07-10T11:57:00.191Z,18.73
2018-07-10T11:58:00.195Z,18.73
2018-07-10T11:59:00.198Z,18.74
2018-07-10T12:00:00.203Z,18.73
2018-07-10T12:01:00.204Z,18.86
2018-07-10T12:02:00.283Z,18.75
2018-07-10T12:03:00.212Z,18.70
2018-07-10T12:04:00.215Z,18.68
2018-07-10T12:05:00.265Z,18.70
2018-07-10T12:06:00.220Z,18.89
2018-07-10T12:07:00.226Z,18.88
2018-07-10T12:08:00.230Z,18.88
2018-07-10T12:09:00.232Z,18.75
2018-07-10T12:10:00.236Z,18.93
2018-07-10T12:11:00.244Z,19.27
2018-07-10T12:12:00.246Z,19.47
2018-07-10T12:13:00.247Z,19.73
2018-07-10T12:14:00.250Z,19.62
2018-07-10T12:15:00.254Z,19.76
2018-07-10T12:16:00.259Z,19.82
2018-07-10T12:17:00.264Z,19.63
2018-07-10T12:18:00.266Z,19.88
2018-07-10T12:19:00.272Z,20.21
2018-07-10T12:20:00.278Z,20.56
2018-07-10T12:21:00.278Z,20.77
2018-07-10T12:22:00.282Z,20.82
2018-07-10T12:23:00.288Z,20.72
2018-07-10T12:24:00.291Z,20.78
2018-07-10T12:25:00.294Z,20.65
2018-07-10T12:26:00.299Z,20.29
2018-07-10T12:27:00.303Z,20.02
2018-07-10T12:28:00.336Z,19.84
2018-07-10T12:29:00.312Z,19.95
2018-07-10T12:30:00.317Z,20.09
2018-07-10T12:31:00.322Z,20.07
2018-07-10T12:32:00.327Z,20.09
2018-07-10T12:33:00.335Z,20.34
2018-07-10T12:34:00.336Z,20.51
2018-07-10T12:35:00.439Z,20.60
2018-07-10T12:36:00.345Z,20.47
2018-07-10T12:37:00.349Z,20.21
2018-07-10T12:38:00.354Z,19.94
2018-07-10T12:39:00.359Z,19.70
2018-07-10T12:40:00.364Z,19.67
2018-07-10T12:41:00.368Z,19.49
2018-07-10T12:42:00.373Z,19.73
2018-07-10T12:43:00.380Z,19.69
2018-07-10T12:44:00.383Z,19.70
2018-07-10T12:45:00.387Z,19.82
2018-07-10T12:46:00.394Z,19.82
2018-07-10T12:47:00.396Z,19.81
2018-07-10T12:48:00.401Z,19.66
2018-07-10T12:49:00.405Z,19.58
2018-07-10T12:50:00.410Z,19.31
2018-07-10T12:51:00.419Z,19.27
2018-07-10T12:52:00.419Z,19.21
2018-07-10T12:53:00.422Z,19.19